sensor_id;sensor_type;location;lat;lon;timestamp;P1;durP1;ratioP1;P2;durP2;ratioP2
70929;SDS011;58588;48.102;19.682;2022-07-29T00:01:40;14.70;;;9.10;;
70929;SDS011;58588;48.102;19.682;2022-07-29T00:04:42;15.48;;;9.57;;
70929;SDS011;58588;48.102;19.682;2022-07-29T00:07:44;15.13;;;8.48;;
70929;SDS011;58588;48.102;19.682;2022-07-29T00:10:46;12.97;;;8.03;;
70929;SDS011;58588;48.102;19.682;2022-07-29T00:13:49;13.98;;;7.63;;
70929;SDS011;58588;48.102;19.682;2022-07-29T00:16:51;17.60;;;8.15;;
70929;SDS011;58588;48.102;19.682;2022-07-29T00:19:53;13.90;;;7.43;;
70929;SDS011;58588;48.102;19.682;2022-07-29T00:22:55;11.55;;;6.45;;
70929;SDS011;58588;48.102;19.682;2022-07-29T00:25:57;11.73;;;5.97;;
70929;SDS011;58588;48.102;19.682;2022-07-29T00:29:00;11.98;;;6.50;;
70929;SDS011;58588;48.102;19.682;2022-07-29T00:32:03;12.43;;;7.00;;
70929;SDS011;58588;48.102;19.682;2022-07-29T00:35:06;12.80;;;6.97;;
70929;SDS011;58588;48.102;19.682;2022-07-29T00:38:26;10.15;;;6.57;;
70929;SDS011;58588;48.102;19.682;2022-07-29T00:41:28;10.60;;;6.07;;
70929;SDS011;58588;48.102;19.682;2022-07-29T00:44:32;11.57;;;6.93;;
70929;SDS011;58588;48.102;19.682;2022-07-29T00:47:38;12.65;;;7.57;;
70929;SDS011;58588;48.102;19.682;2022-07-29T00:50:42;12.63;;;7.75;;
70929;SDS011;58588;48.102;19.682;2022-07-29T00:53:44;12.68;;;8.32;;
70929;SDS011;58588;48.102;19.682;2022-07-29T00:56:50;13.37;;;8.17;;
70929;SDS011;58588;48.102;19.682;2022-07-29T00:59:54;11.70;;;7.18;;
70929;SDS011;58588;48.102;19.682;2022-07-29T01:02:56;12.23;;;7.28;;
70929;SDS011;58588;48.102;19.682;2022-07-29T01:05:58;13.05;;;7.45;;
70929;SDS011;58588;48.102;19.682;2022-07-29T01:09:01;11.77;;;7.05;;
70929;SDS011;58588;48.102;19.682;2022-07-29T01:12:03;13.07;;;7.13;;
70929;SDS011;58588;48.102;19.682;2022-07-29T01:15:08;10.73;;;6.78;;
70929;SDS011;58588;48.102;19.682;2022-07-29T01:18:11;13.18;;;6.72;;
70929;SDS011;58588;48.102;19.682;2022-07-29T01:21:27;9.65;;;5.93;;
70929;SDS011;58588;48.102;19.682;2022-07-29T01:24:51;12.57;;;5.57;;
70929;SDS011;58588;48.102;19.682;2022-07-29T01:28:08;15.77;;;5.80;;
70929;SDS011;58588;48.102;19.682;2022-07-29T01:31:24;11.32;;;5.68;;
70929;SDS011;58588;48.102;19.682;2022-07-29T01:34:35;10.45;;;5.88;;
70929;SDS011;58588;48.102;19.682;2022-07-29T01:37:44;10.93;;;5.80;;
70929;SDS011;58588;48.102;19.682;2022-07-29T01:40:51;12.18;;;5.75;;
70929;SDS011;58588;48.102;19.682;2022-07-29T01:43:59;9.60;;;5.77;;
70929;SDS011;58588;48.102;19.682;2022-07-29T01:47:17;9.82;;;5.22;;
70929;SDS011;58588;48.102;19.682;2022-07-29T01:50:23;11.30;;;5.90;;
70929;SDS011;58588;48.102;19.682;2022-07-29T01:53:32;11.15;;;6.03;;
70929;SDS011;58588;48.102;19.682;2022-07-29T01:56:37;11.40;;;6.35;;
70929;SDS011;58588;48.102;19.682;2022-07-29T01:59:40;10.20;;;6.03;;
70929;SDS011;58588;48.102;19.682;2022-07-29T02:02:46;9.13;;;6.00;;
70929;SDS011;58588;48.102;19.682;2022-07-29T02:05:49;10.38;;;5.97;;
70929;SDS011;58588;48.102;19.682;2022-07-29T02:08:53;11.60;;;6.18;;
70929;SDS011;58588;48.102;19.682;2022-07-29T02:11:57;10.27;;;5.68;;
70929;SDS011;58588;48.102;19.682;2022-07-29T02:15:02;11.47;;;6.43;;
70929;SDS011;58588;48.102;19.682;2022-07-29T02:18:07;10.93;;;6.15;;
70929;SDS011;58588;48.102;19.682;2022-07-29T02:21:12;10.85;;;6.28;;
70929;SDS011;58588;48.102;19.682;2022-07-29T02:24:19;11.25;;;6.20;;
70929;SDS011;58588;48.102;19.682;2022-07-29T02:27:24;9.40;;;5.78;;
70929;SDS011;58588;48.102;19.682;2022-07-29T02:30:28;11.07;;;6.33;;
70929;SDS011;58588;48.102;19.682;2022-07-29T02:33:33;13.05;;;7.53;;
70929;SDS011;58588;48.102;19.682;2022-07-29T02:36:36;10.70;;;5.93;;
70929;SDS011;58588;48.102;19.682;2022-07-29T02:39:38;11.45;;;6.35;;
70929;SDS011;58588;48.102;19.682;2022-07-29T02:42:43;10.15;;;5.97;;
70929;SDS011;58588;48.102;19.682;2022-07-29T02:45:47;13.03;;;6.83;;
70929;SDS011;58588;48.102;19.682;2022-07-29T02:48:58;12.10;;;6.88;;
70929;SDS011;58588;48.102;19.682;2022-07-29T02:52:05;11.73;;;6.43;;
70929;SDS011;58588;48.102;19.682;2022-07-29T02:55:11;14.77;;;5.90;;
70929;SDS011;58588;48.102;19.682;2022-07-29T02:58:19;10.48;;;6.30;;
70929;SDS011;58588;48.102;19.682;2022-07-29T03:01:30;9.97;;;5.60;;
70929;SDS011;58588;48.102;19.682;2022-07-29T03:04:35;9.68;;;6.03;;
70929;SDS011;58588;48.102;19.682;2022-07-29T03:07:41;11.68;;;6.25;;
70929;SDS011;58588;48.102;19.682;2022-07-29T03:10:47;11.65;;;6.40;;
70929;SDS011;58588;48.102;19.682;2022-07-29T03:13:50;11.13;;;6.30;;
70929;SDS011;58588;48.102;19.682;2022-07-29T03:16:52;11.50;;;6.30;;
70929;SDS011;58588;48.102;19.682;2022-07-29T03:19:56;12.32;;;6.70;;
70929;SDS011;58588;48.102;19.682;2022-07-29T03:22:59;13.75;;;6.20;;
70929;SDS011;58588;48.102;19.682;2022-07-29T03:26:01;11.77;;;6.57;;
70929;SDS011;58588;48.102;19.682;2022-07-29T03:29:03;10.80;;;5.95;;
70929;SDS011;58588;48.102;19.682;2022-07-29T03:32:05;12.13;;;6.40;;
70929;SDS011;58588;48.102;19.682;2022-07-29T03:35:09;12.02;;;6.10;;
70929;SDS011;58588;48.102;19.682;2022-07-29T03:38:11;10.65;;;6.40;;
70929;SDS011;58588;48.102;19.682;2022-07-29T03:41:13;12.98;;;6.55;;
70929;SDS011;58588;48.102;19.682;2022-07-29T03:44:17;12.40;;;6.50;;
70929;SDS011;58588;48.102;19.682;2022-07-29T03:47:23;13.83;;;6.07;;
70929;SDS011;58588;48.102;19.682;2022-07-29T03:50:30;9.88;;;6.22;;
70929;SDS011;58588;48.102;19.682;2022-07-29T03:53:34;10.20;;;6.03;;
70929;SDS011;58588;48.102;19.682;2022-07-29T03:56:37;11.52;;;6.82;;
70929;SDS011;58588;48.102;19.682;2022-07-29T03:59:42;11.77;;;7.10;;
70929;SDS011;58588;48.102;19.682;2022-07-29T04:02:45;12.93;;;7.57;;
70929;SDS011;58588;48.102;19.682;2022-07-29T04:05:58;9.95;;;6.47;;
70929;SDS011;58588;48.102;19.682;2022-07-29T04:09:01;10.65;;;6.75;;
70929;SDS011;58588;48.102;19.682;2022-07-29T04:12:04;11.40;;;6.93;;
70929;SDS011;58588;48.102;19.682;2022-07-29T04:15:06;11.82;;;6.90;;
70929;SDS011;58588;48.102;19.682;2022-07-29T04:18:09;11.83;;;6.70;;
70929;SDS011;58588;48.102;19.682;2022-07-29T04:21:12;11.38;;;7.13;;
70929;SDS011;58588;48.102;19.682;2022-07-29T04:24:14;11.55;;;6.90;;
70929;SDS011;58588;48.102;19.682;2022-07-29T04:27:16;12.05;;;6.78;;
70929;SDS011;58588;48.102;19.682;2022-07-29T04:30:18;10.70;;;6.70;;
70929;SDS011;58588;48.102;19.682;2022-07-29T04:33:20;10.77;;;6.50;;
70929;SDS011;58588;48.102;19.682;2022-07-29T04:36:23;10.90;;;6.85;;
70929;SDS011;58588;48.102;19.682;2022-07-29T04:39:25;12.05;;;6.93;;
70929;SDS011;58588;48.102;19.682;2022-07-29T04:42:27;12.68;;;7.00;;
70929;SDS011;58588;48.102;19.682;2022-07-29T04:45:29;12.63;;;7.32;;
70929;SDS011;58588;48.102;19.682;2022-07-29T04:48:31;11.00;;;7.37;;
70929;SDS011;58588;48.102;19.682;2022-07-29T04:51:35;16.38;;;7.40;;
70929;SDS011;58588;48.102;19.682;2022-07-29T04:54:37;11.85;;;6.90;;
70929;SDS011;58588;48.102;19.682;2022-07-29T04:57:39;10.70;;;6.60;;
70929;SDS011;58588;48.102;19.682;2022-07-29T05:00:41;13.68;;;7.22;;
70929;SDS011;58588;48.102;19.682;2022-07-29T05:03:43;11.47;;;6.77;;
70929;SDS011;58588;48.102;19.682;2022-07-29T05:06:47;13.93;;;7.40;;
70929;SDS011;58588;48.102;19.682;2022-07-29T05:09:49;11.80;;;7.13;;
70929;SDS011;58588;48.102;19.682;2022-07-29T05:12:50;11.45;;;6.95;;
70929;SDS011;58588;48.102;19.682;2022-07-29T05:15:52;11.07;;;6.95;;
70929;SDS011;58588;48.102;19.682;2022-07-29T05:18:54;9.87;;;6.23;;
70929;SDS011;58588;48.102;19.682;2022-07-29T05:21:58;10.07;;;6.30;;
70929;SDS011;58588;48.102;19.682;2022-07-29T05:25:00;9.00;;;5.32;;
70929;SDS011;58588;48.102;19.682;2022-07-29T05:28:02;9.70;;;5.90;;
70929;SDS011;58588;48.102;19.682;2022-07-29T05:31:04;9.43;;;5.97;;
70929;SDS011;58588;48.102;19.682;2022-07-29T05:34:06;10.07;;;6.70;;
70929;SDS011;58588;48.102;19.682;2022-07-29T05:37:10;11.35;;;6.55;;
70929;SDS011;58588;48.102;19.682;2022-07-29T05:40:13;11.43;;;5.85;;
70929;SDS011;58588;48.102;19.682;2022-07-29T05:43:15;15.23;;;5.85;;
70929;SDS011;58588;48.102;19.682;2022-07-29T05:46:17;9.18;;;5.90;;
70929;SDS011;58588;48.102;19.682;2022-07-29T05:49:19;9.50;;;5.70;;
70929;SDS011;58588;48.102;19.682;2022-07-29T05:52:23;9.43;;;5.78;;
70929;SDS011;58588;48.102;19.682;2022-07-29T05:55:25;9.18;;;5.78;;
70929;SDS011;58588;48.102;19.682;2022-07-29T05:58:27;9.98;;;5.38;;
70929;SDS011;58588;48.102;19.682;2022-07-29T06:01:29;10.43;;;5.97;;
70929;SDS011;58588;48.102;19.682;2022-07-29T06:04:34;9.93;;;5.77;;
70929;SDS011;58588;48.102;19.682;2022-07-29T06:07:37;11.95;;;5.55;;
70929;SDS011;58588;48.102;19.682;2022-07-29T06:10:39;9.35;;;5.55;;
70929;SDS011;58588;48.102;19.682;2022-07-29T06:13:41;10.65;;;5.47;;
70929;SDS011;58588;48.102;19.682;2022-07-29T06:16:43;9.70;;;5.53;;
70929;SDS011;58588;48.102;19.682;2022-07-29T06:19:45;8.57;;;4.83;;
70929;SDS011;58588;48.102;19.682;2022-07-29T06:22:49;9.40;;;4.82;;
70929;SDS011;58588;48.102;19.682;2022-07-29T06:25:51;8.23;;;4.85;;
70929;SDS011;58588;48.102;19.682;2022-07-29T06:28:53;9.10;;;4.88;;
70929;SDS011;58588;48.102;19.682;2022-07-29T06:31:55;10.18;;;5.07;;
70929;SDS011;58588;48.102;19.682;2022-07-29T06:34:56;8.73;;;4.67;;
70929;SDS011;58588;48.102;19.682;2022-07-29T06:38:00;11.40;;;4.97;;
70929;SDS011;58588;48.102;19.682;2022-07-29T06:41:02;8.52;;;5.00;;
70929;SDS011;58588;48.102;19.682;2022-07-29T06:44:05;11.20;;;5.05;;
70929;SDS011;58588;48.102;19.682;2022-07-29T06:47:07;9.57;;;4.97;;
70929;SDS011;58588;48.102;19.682;2022-07-29T06:50:09;7.60;;;4.70;;
70929;SDS011;58588;48.102;19.682;2022-07-29T06:53:14;7.70;;;4.63;;
70929;SDS011;58588;48.102;19.682;2022-07-29T06:56:16;9.23;;;4.45;;
70929;SDS011;58588;48.102;19.682;2022-07-29T06:59:18;8.07;;;4.72;;
70929;SDS011;58588;48.102;19.682;2022-07-29T07:02:22;10.23;;;4.70;;
70929;SDS011;58588;48.102;19.682;2022-07-29T07:05:30;8.90;;;4.90;;
70929;SDS011;58588;48.102;19.682;2022-07-29T07:08:33;11.07;;;5.07;;
70929;SDS011;58588;48.102;19.682;2022-07-29T07:11:35;8.55;;;4.90;;
70929;SDS011;58588;48.102;19.682;2022-07-29T07:14:37;8.80;;;5.20;;
70929;SDS011;58588;48.102;19.682;2022-07-29T07:17:41;7.55;;;4.30;;
70929;SDS011;58588;48.102;19.682;2022-07-29T07:20:43;12.03;;;4.77;;
70929;SDS011;58588;48.102;19.682;2022-07-29T07:23:46;8.48;;;4.57;;
70929;SDS011;58588;48.102;19.682;2022-07-29T07:26:48;8.18;;;4.57;;
70929;SDS011;58588;48.102;19.682;2022-07-29T07:29:50;8.05;;;4.82;;
70929;SDS011;58588;48.102;19.682;2022-07-29T07:32:52;10.15;;;4.78;;
70929;SDS011;58588;48.102;19.682;2022-07-29T07:35:54;9.43;;;4.80;;
70929;SDS011;58588;48.102;19.682;2022-07-29T07:38:57;12.18;;;4.85;;
70929;SDS011;58588;48.102;19.682;2022-07-29T07:41:59;7.38;;;4.50;;
70929;SDS011;58588;48.102;19.682;2022-07-29T07:45:01;8.75;;;5.18;;
70929;SDS011;58588;48.102;19.682;2022-07-29T07:48:04;9.02;;;4.70;;
70929;SDS011;58588;48.102;19.682;2022-07-29T07:51:06;7.03;;;4.57;;
70929;SDS011;58588;48.102;19.682;2022-07-29T07:54:09;8.10;;;4.72;;
70929;SDS011;58588;48.102;19.682;2022-07-29T07:57:12;7.97;;;4.10;;
70929;SDS011;58588;48.102;19.682;2022-07-29T08:00:14;9.55;;;4.88;;
70929;SDS011;58588;48.102;19.682;2022-07-29T08:03:17;8.60;;;4.60;;
70929;SDS011;58588;48.102;19.682;2022-07-29T08:06:20;8.17;;;4.80;;
70929;SDS011;58588;48.102;19.682;2022-07-29T08:09:23;9.30;;;4.53;;
70929;SDS011;58588;48.102;19.682;2022-07-29T08:12:27;12.98;;;4.80;;
70929;SDS011;58588;48.102;19.682;2022-07-29T08:15:29;10.73;;;4.70;;
70929;SDS011;58588;48.102;19.682;2022-07-29T08:18:31;11.27;;;4.63;;
70929;SDS011;58588;48.102;19.682;2022-07-29T08:21:33;10.53;;;4.67;;
70929;SDS011;58588;48.102;19.682;2022-07-29T08:24:36;7.15;;;4.13;;
70929;SDS011;58588;48.102;19.682;2022-07-29T08:27:44;8.18;;;4.68;;
70929;SDS011;58588;48.102;19.682;2022-07-29T08:30:46;7.47;;;4.68;;
70929;SDS011;58588;48.102;19.682;2022-07-29T08:33:48;8.32;;;4.68;;
70929;SDS011;58588;48.102;19.682;2022-07-29T08:36:50;7.60;;;4.73;;
70929;SDS011;58588;48.102;19.682;2022-07-29T08:39:53;9.00;;;4.75;;
70929;SDS011;58588;48.102;19.682;2022-07-29T08:42:55;10.52;;;4.35;;
70929;SDS011;58588;48.102;19.682;2022-07-29T08:45:57;8.00;;;4.25;;
70929;SDS011;58588;48.102;19.682;2022-07-29T08:48:59;8.30;;;4.97;;
70929;SDS011;58588;48.102;19.682;2022-07-29T08:52:03;8.77;;;4.73;;
70929;SDS011;58588;48.102;19.682;2022-07-29T08:55:08;7.47;;;4.57;;
70929;SDS011;58588;48.102;19.682;2022-07-29T08:58:11;11.57;;;4.60;;
70929;SDS011;58588;48.102;19.682;2022-07-29T09:01:16;10.57;;;4.30;;
70929;SDS011;58588;48.102;19.682;2022-07-29T09:04:18;7.25;;;4.20;;
70929;SDS011;58588;48.102;19.682;2022-07-29T09:07:21;7.20;;;4.33;;
70929;SDS011;58588;48.102;19.682;2022-07-29T09:10:24;6.85;;;4.10;;
70929;SDS011;58588;48.102;19.682;2022-07-29T09:13:26;7.18;;;4.18;;
70929;SDS011;58588;48.102;19.682;2022-07-29T09:16:43;12.52;;;4.55;;
70929;SDS011;58588;48.102;19.682;2022-07-29T09:19:46;7.05;;;4.40;;
70929;SDS011;58588;48.102;19.682;2022-07-29T09:22:48;8.63;;;4.63;;
70929;SDS011;58588;48.102;19.682;2022-07-29T09:25:54;7.60;;;4.65;;
70929;SDS011;58588;48.102;19.682;2022-07-29T09:28:56;7.18;;;4.18;;
70929;SDS011;58588;48.102;19.682;2022-07-29T09:31:59;6.75;;;4.13;;
70929;SDS011;58588;48.102;19.682;2022-07-29T09:35:17;8.25;;;4.32;;
70929;SDS011;58588;48.102;19.682;2022-07-29T09:38:20;7.13;;;4.30;;
70929;SDS011;58588;48.102;19.682;2022-07-29T09:41:23;10.75;;;4.25;;
70929;SDS011;58588;48.102;19.682;2022-07-29T09:44:25;7.05;;;4.20;;
70929;SDS011;58588;48.102;19.682;2022-07-29T09:47:39;7.65;;;4.00;;
70929;SDS011;58588;48.102;19.682;2022-07-29T09:50:45;12.25;;;4.10;;
70929;SDS011;58588;48.102;19.682;2022-07-29T09:53:49;7.17;;;4.20;;
70929;SDS011;58588;48.102;19.682;2022-07-29T09:56:53;6.88;;;4.28;;
70929;SDS011;58588;48.102;19.682;2022-07-29T09:59:58;8.98;;;4.40;;
70929;SDS011;58588;48.102;19.682;2022-07-29T10:03:11;8.98;;;4.18;;
70929;SDS011;58588;48.102;19.682;2022-07-29T10:06:21;7.03;;;4.30;;
70929;SDS011;58588;48.102;19.682;2022-07-29T10:09:29;7.73;;;4.33;;
70929;SDS011;58588;48.102;19.682;2022-07-29T10:12:33;7.80;;;4.00;;
70929;SDS011;58588;48.102;19.682;2022-07-29T10:15:36;7.40;;;4.00;;
70929;SDS011;58588;48.102;19.682;2022-07-29T10:18:41;7.43;;;4.30;;
70929;SDS011;58588;48.102;19.682;2022-07-29T10:21:45;7.00;;;4.30;;
70929;SDS011;58588;48.102;19.682;2022-07-29T10:24:47;7.60;;;3.80;;
70929;SDS011;58588;48.102;19.682;2022-07-29T10:27:51;7.25;;;4.65;;
70929;SDS011;58588;48.102;19.682;2022-07-29T10:31:07;9.07;;;4.20;;
70929;SDS011;58588;48.102;19.682;2022-07-29T10:34:22;11.05;;;4.60;;
70929;SDS011;58588;48.102;19.682;2022-07-29T10:37:39;6.80;;;3.97;;
70929;SDS011;58588;48.102;19.682;2022-07-29T10:41:03;8.63;;;4.30;;
70929;SDS011;58588;48.102;19.682;2022-07-29T10:44:30;7.68;;;4.07;;
70929;SDS011;58588;48.102;19.682;2022-07-29T10:47:34;9.00;;;4.10;;
70929;SDS011;58588;48.102;19.682;2022-07-29T10:50:51;10.27;;;4.00;;
70929;SDS011;58588;48.102;19.682;2022-07-29T10:53:55;7.68;;;4.43;;
70929;SDS011;58588;48.102;19.682;2022-07-29T10:57:09;8.13;;;4.30;;
70929;SDS011;58588;48.102;19.682;2022-07-29T11:03:43;7.93;;;4.10;;
70929;SDS011;58588;48.102;19.682;2022-07-29T11:07:08;8.45;;;4.50;;
70929;SDS011;58588;48.102;19.682;2022-07-29T11:10:20;8.15;;;4.50;;
70929;SDS011;58588;48.102;19.682;2022-07-29T11:17:03;6.57;;;4.25;;
70929;SDS011;58588;48.102;19.682;2022-07-29T11:23:41;8.68;;;4.53;;
70929;SDS011;58588;48.102;19.682;2022-07-29T11:26:43;7.18;;;4.38;;
70929;SDS011;58588;48.102;19.682;2022-07-29T11:29:50;11.27;;;4.73;;
70929;SDS011;58588;48.102;19.682;2022-07-29T11:32:55;7.28;;;4.15;;
70929;SDS011;58588;48.102;19.682;2022-07-29T11:36:07;7.82;;;4.07;;
70929;SDS011;58588;48.102;19.682;2022-07-29T11:39:25;9.20;;;4.30;;
70929;SDS011;58588;48.102;19.682;2022-07-29T11:42:41;9.70;;;4.25;;
70929;SDS011;58588;48.102;19.682;2022-07-29T11:45:50;6.67;;;3.93;;
70929;SDS011;58588;48.102;19.682;2022-07-29T11:48:54;7.07;;;4.32;;
70929;SDS011;58588;48.102;19.682;2022-07-29T11:52:05;8.30;;;4.10;;
70929;SDS011;58588;48.102;19.682;2022-07-29T11:55:13;8.95;;;4.15;;
70929;SDS011;58588;48.102;19.682;2022-07-29T11:58:22;6.82;;;3.83;;
70929;SDS011;58588;48.102;19.682;2022-07-29T12:01:25;7.77;;;4.27;;
70929;SDS011;58588;48.102;19.682;2022-07-29T12:08:09;7.15;;;3.90;;
70929;SDS011;58588;48.102;19.682;2022-07-29T12:11:16;8.07;;;3.92;;
70929;SDS011;58588;48.102;19.682;2022-07-29T12:14:29;10.45;;;4.18;;
70929;SDS011;58588;48.102;19.682;2022-07-29T12:17:37;7.83;;;3.93;;
70929;SDS011;58588;48.102;19.682;2022-07-29T12:21:06;7.95;;;4.18;;
70929;SDS011;58588;48.102;19.682;2022-07-29T12:24:42;7.68;;;4.38;;
70929;SDS011;58588;48.102;19.682;2022-07-29T12:27:44;8.90;;;4.22;;
70929;SDS011;58588;48.102;19.682;2022-07-29T12:30:48;8.93;;;4.30;;
70929;SDS011;58588;48.102;19.682;2022-07-29T12:33:51;5.97;;;3.80;;
70929;SDS011;58588;48.102;19.682;2022-07-29T12:36:56;8.68;;;4.30;;
70929;SDS011;58588;48.102;19.682;2022-07-29T12:39:58;7.18;;;4.10;;
70929;SDS011;58588;48.102;19.682;2022-07-29T12:43:09;6.50;;;4.10;;
70929;SDS011;58588;48.102;19.682;2022-07-29T12:46:13;8.80;;;4.25;;
70929;SDS011;58588;48.102;19.682;2022-07-29T12:49:20;9.53;;;3.80;;
70929;SDS011;58588;48.102;19.682;2022-07-29T12:52:24;7.70;;;4.60;;
70929;SDS011;58588;48.102;19.682;2022-07-29T12:55:43;9.52;;;4.50;;
70929;SDS011;58588;48.102;19.682;2022-07-29T12:58:48;6.68;;;4.05;;
70929;SDS011;58588;48.102;19.682;2022-07-29T13:09:45;7.97;;;4.22;;
70929;SDS011;58588;48.102;19.682;2022-07-29T13:13:04;6.72;;;3.88;;
70929;SDS011;58588;48.102;19.682;2022-07-29T13:16:08;7.05;;;3.92;;
70929;SDS011;58588;48.102;19.682;2022-07-29T13:19:10;6.95;;;3.88;;
70929;SDS011;58588;48.102;19.682;2022-07-29T13:22:14;7.03;;;4.00;;
70929;SDS011;58588;48.102;19.682;2022-07-29T13:25:24;8.02;;;3.85;;
70929;SDS011;58588;48.102;19.682;2022-07-29T13:28:27;7.13;;;3.75;;
70929;SDS011;58588;48.102;19.682;2022-07-29T13:31:29;10.13;;;3.90;;
70929;SDS011;58588;48.102;19.682;2022-07-29T13:34:31;12.02;;;3.72;;
70929;SDS011;58588;48.102;19.682;2022-07-29T13:37:33;10.10;;;4.03;;
70929;SDS011;58588;48.102;19.682;2022-07-29T13:40:39;7.13;;;4.10;;
70929;SDS011;58588;48.102;19.682;2022-07-29T13:43:42;8.93;;;4.10;;
70929;SDS011;58588;48.102;19.682;2022-07-29T13:46:44;7.50;;;4.07;;
70929;SDS011;58588;48.102;19.682;2022-07-29T13:49:46;6.85;;;4.00;;
70929;SDS011;58588;48.102;19.682;2022-07-29T13:52:49;8.07;;;3.70;;
70929;SDS011;58588;48.102;19.682;2022-07-29T13:59:26;8.52;;;3.60;;
70929;SDS011;58588;48.102;19.682;2022-07-29T14:02:28;9.10;;;3.90;;
70929;SDS011;58588;48.102;19.682;2022-07-29T14:05:30;6.03;;;3.53;;
70929;SDS011;58588;48.102;19.682;2022-07-29T14:08:32;6.80;;;3.80;;
70929;SDS011;58588;48.102;19.682;2022-07-29T14:11:35;10.60;;;4.03;;
70929;SDS011;58588;48.102;19.682;2022-07-29T14:14:38;6.40;;;3.75;;
70929;SDS011;58588;48.102;19.682;2022-07-29T14:17:41;7.60;;;3.90;;
70929;SDS011;58588;48.102;19.682;2022-07-29T14:20:43;6.00;;;3.65;;
70929;SDS011;58588;48.102;19.682;2022-07-29T14:23:45;7.50;;;3.63;;
70929;SDS011;58588;48.102;19.682;2022-07-29T14:26:49;7.88;;;3.63;;
70929;SDS011;58588;48.102;19.682;2022-07-29T14:29:51;6.25;;;3.70;;
70929;SDS011;58588;48.102;19.682;2022-07-29T14:32:53;6.85;;;3.80;;
70929;SDS011;58588;48.102;19.682;2022-07-29T14:35:55;7.75;;;3.75;;
70929;SDS011;58588;48.102;19.682;2022-07-29T14:38:57;8.20;;;4.17;;
70929;SDS011;58588;48.102;19.682;2022-07-29T14:42:00;7.45;;;3.70;;
70929;SDS011;58588;48.102;19.682;2022-07-29T14:45:02;6.07;;;3.58;;
70929;SDS011;58588;48.102;19.682;2022-07-29T14:48:05;8.13;;;3.75;;
70929;SDS011;58588;48.102;19.682;2022-07-29T14:51:07;6.72;;;3.72;;
70929;SDS011;58588;48.102;19.682;2022-07-29T14:54:08;6.97;;;4.00;;
70929;SDS011;58588;48.102;19.682;2022-07-29T14:57:12;6.95;;;4.00;;
70929;SDS011;58588;48.102;19.682;2022-07-29T15:00:14;8.10;;;3.70;;
70929;SDS011;58588;48.102;19.682;2022-07-29T15:03:22;8.65;;;3.88;;
70929;SDS011;58588;48.102;19.682;2022-07-29T15:06:24;10.80;;;4.22;;
70929;SDS011;58588;48.102;19.682;2022-07-29T15:09:26;10.10;;;3.90;;
70929;SDS011;58588;48.102;19.682;2022-07-29T15:12:30;6.53;;;4.00;;
70929;SDS011;58588;48.102;19.682;2022-07-29T15:15:37;7.32;;;3.58;;
70929;SDS011;58588;48.102;19.682;2022-07-29T15:18:39;7.50;;;4.00;;
70929;SDS011;58588;48.102;19.682;2022-07-29T15:21:41;14.43;;;4.00;;
70929;SDS011;58588;48.102;19.682;2022-07-29T15:24:43;10.60;;;4.53;;
70929;SDS011;58588;48.102;19.682;2022-07-29T15:27:47;7.05;;;4.05;;
70929;SDS011;58588;48.102;19.682;2022-07-29T15:30:48;9.60;;;3.90;;
70929;SDS011;58588;48.102;19.682;2022-07-29T15:33:50;9.93;;;4.20;;
70929;SDS011;58588;48.102;19.682;2022-07-29T15:36:53;7.50;;;4.13;;
70929;SDS011;58588;48.102;19.682;2022-07-29T15:39:55;10.23;;;4.60;;
70929;SDS011;58588;48.102;19.682;2022-07-29T15:42:58;10.35;;;4.30;;
70929;SDS011;58588;48.102;19.682;2022-07-29T15:46:05;8.10;;;4.30;;
70929;SDS011;58588;48.102;19.682;2022-07-29T15:49:21;7.40;;;3.65;;
70929;SDS011;58588;48.102;19.682;2022-07-29T15:52:23;7.05;;;4.35;;
70929;SDS011;58588;48.102;19.682;2022-07-29T15:55:25;9.03;;;4.20;;
70929;SDS011;58588;48.102;19.682;2022-07-29T15:58:29;12.10;;;4.53;;
70929;SDS011;58588;48.102;19.682;2022-07-29T16:01:31;10.50;;;3.80;;
70929;SDS011;58588;48.102;19.682;2022-07-29T16:04:32;8.70;;;3.90;;
70929;SDS011;58588;48.102;19.682;2022-07-29T16:07:35;8.57;;;4.32;;
70929;SDS011;58588;48.102;19.682;2022-07-29T16:10:37;6.50;;;4.10;;
70929;SDS011;58588;48.102;19.682;2022-07-29T16:13:40;7.85;;;4.18;;
70929;SDS011;58588;48.102;19.682;2022-07-29T16:16:42;11.68;;;4.50;;
70929;SDS011;58588;48.102;19.682;2022-07-29T16:19:45;11.18;;;4.53;;
70929;SDS011;58588;48.102;19.682;2022-07-29T16:22:47;12.10;;;4.13;;
70929;SDS011;58588;48.102;19.682;2022-07-29T16:25:50;8.93;;;4.87;;
70929;SDS011;58588;48.102;19.682;2022-07-29T16:28:53;10.57;;;4.18;;
70929;SDS011;58588;48.102;19.682;2022-07-29T16:31:55;13.20;;;4.38;;
70929;SDS011;58588;48.102;19.682;2022-07-29T16:34:57;10.77;;;4.45;;
70929;SDS011;58588;48.102;19.682;2022-07-29T16:38:01;7.88;;;3.90;;
70929;SDS011;58588;48.102;19.682;2022-07-29T16:41:03;7.87;;;3.87;;
70929;SDS011;58588;48.102;19.682;2022-07-29T16:44:06;9.43;;;3.92;;
70929;SDS011;58588;48.102;19.682;2022-07-29T16:47:08;6.47;;;3.45;;
70929;SDS011;58588;48.102;19.682;2022-07-29T16:50:10;8.02;;;4.00;;
70929;SDS011;58588;48.102;19.682;2022-07-29T16:53:12;8.48;;;3.80;;
70929;SDS011;58588;48.102;19.682;2022-07-29T16:56:14;7.60;;;3.83;;
70929;SDS011;58588;48.102;19.682;2022-07-29T17:02:40;10.00;;;4.32;;
70929;SDS011;58588;48.102;19.682;2022-07-29T17:05:42;9.73;;;3.72;;
70929;SDS011;58588;48.102;19.682;2022-07-29T17:08:46;9.05;;;3.70;;
70929;SDS011;58588;48.102;19.682;2022-07-29T17:11:48;7.83;;;3.80;;
70929;SDS011;58588;48.102;19.682;2022-07-29T17:14:54;7.57;;;3.83;;
70929;SDS011;58588;48.102;19.682;2022-07-29T17:18:00;11.90;;;3.55;;
70929;SDS011;58588;48.102;19.682;2022-07-29T17:21:02;8.65;;;3.70;;
70929;SDS011;58588;48.102;19.682;2022-07-29T17:24:04;7.43;;;3.70;;
70929;SDS011;58588;48.102;19.682;2022-07-29T17:27:07;8.53;;;3.60;;
70929;SDS011;58588;48.102;19.682;2022-07-29T17:30:11;10.75;;;3.90;;
70929;SDS011;58588;48.102;19.682;2022-07-29T17:33:19;9.80;;;4.18;;
70929;SDS011;58588;48.102;19.682;2022-07-29T17:36:21;9.15;;;3.97;;
70929;SDS011;58588;48.102;19.682;2022-07-29T17:39:27;11.65;;;4.28;;
70929;SDS011;58588;48.102;19.682;2022-07-29T17:42:28;9.43;;;4.23;;
70929;SDS011;58588;48.102;19.682;2022-07-29T17:45:35;17.67;;;4.65;;
70929;SDS011;58588;48.102;19.682;2022-07-29T17:48:43;12.57;;;4.50;;
70929;SDS011;58588;48.102;19.682;2022-07-29T17:51:45;9.82;;;4.57;;
70929;SDS011;58588;48.102;19.682;2022-07-29T17:54:47;15.52;;;4.88;;
70929;SDS011;58588;48.102;19.682;2022-07-29T17:57:49;9.00;;;4.53;;
70929;SDS011;58588;48.102;19.682;2022-07-29T18:00:53;9.32;;;4.65;;
70929;SDS011;58588;48.102;19.682;2022-07-29T18:03:54;7.82;;;4.72;;
70929;SDS011;58588;48.102;19.682;2022-07-29T18:06:56;11.38;;;5.25;;
70929;SDS011;58588;48.102;19.682;2022-07-29T18:09:58;9.43;;;4.72;;
70929;SDS011;58588;48.102;19.682;2022-07-29T18:13:00;7.97;;;4.83;;
70929;SDS011;58588;48.102;19.682;2022-07-29T18:16:04;9.68;;;4.85;;
70929;SDS011;58588;48.102;19.682;2022-07-29T18:19:07;12.95;;;5.38;;
70929;SDS011;58588;48.102;19.682;2022-07-29T18:22:09;10.75;;;5.30;;
70929;SDS011;58588;48.102;19.682;2022-07-29T18:25:12;11.55;;;5.50;;
70929;SDS011;58588;48.102;19.682;2022-07-29T18:28:15;8.40;;;4.70;;
70929;SDS011;58588;48.102;19.682;2022-07-29T18:31:19;8.50;;;5.13;;
70929;SDS011;58588;48.102;19.682;2022-07-29T18:34:20;10.23;;;4.30;;
70929;SDS011;58588;48.102;19.682;2022-07-29T18:37:22;9.23;;;4.78;;